sensor_id;sensor_type;location;lat;lon;timestamp;P1;durP1;ratioP1;P2;durP2;ratioP2
26269;SDS011;15937;50.612;6.656;2024-03-23T00:57:35;20.13;;;2.88;;
26269;SDS011;15937;50.612;6.656;2024-03-23T01:01:35;20.38;;;3.30;;
26269;SDS011;15937;50.612;6.656;2024-03-23T01:05:37;11.35;;;3.50;;
26269;SDS011;15937;50.612;6.656;2024-03-23T01:09:41;19.25;;;3.22;;
26269;SDS011;15937;50.612;6.656;2024-03-23T01:13:42;18.17;;;3.50;;
26269;SDS011;15937;50.612;6.656;2024-03-23T01:17:43;16.35;;;3.55;;
26269;SDS011;15937;50.612;6.656;2024-03-23T01:21:44;15.85;;;3.55;;
26269;SDS011;15937;50.612;6.656;2024-03-23T01:25:55;12.73;;;3.38;;
26269;SDS011;15937;50.612;6.656;2024-03-23T01:29:56;16.42;;;3.00;;
26269;SDS011;15937;50.612;6.656;2024-03-23T01:33:58;15.98;;;3.25;;
26269;SDS011;15937;50.612;6.656;2024-03-23T01:37:59;12.65;;;3.50;;
26269;SDS011;15937;50.612;6.656;2024-03-23T01:41:59;12.60;;;2.97;;
26269;SDS011;15937;50.612;6.656;2024-03-23T01:46:02;10.90;;;3.10;;
26269;SDS011;15937;50.612;6.656;2024-03-23T01:54:06;13.18;;;2.95;;
26269;SDS011;15937;50.612;6.656;2024-03-23T01:58:08;13.18;;;2.95;;
26269;SDS011;15937;50.612;6.656;2024-03-23T02:02:09;5.63;;;2.65;;
26269;SDS011;15937;50.612;6.656;2024-03-23T02:06:11;11.82;;;2.60;;
26269;SDS011;15937;50.612;6.656;2024-03-23T02:10:11;12.10;;;2.50;;
26269;SDS011;15937;50.612;6.656;2024-03-23T02:14:15;7.70;;;2.00;;
26269;SDS011;15937;50.612;6.656;2024-03-23T02:18:16;12.00;;;2.50;;
26269;SDS011;15937;50.612;6.656;2024-03-23T02:22:18;9.52;;;2.58;;
26269;SDS011;15937;50.612;6.656;2024-03-23T02:26:19;6.55;;;2.33;;
26269;SDS011;15937;50.612;6.656;2024-03-23T02:30:20;9.15;;;2.88;;
26269;SDS011;15937;50.612;6.656;2024-03-23T02:34:22;8.18;;;2.33;;
26269;SDS011;15937;50.612;6.656;2024-03-23T02:38:23;3.70;;;2.20;;
26269;SDS011;15937;50.612;6.656;2024-03-23T02:42:24;3.65;;;2.42;;
26269;SDS011;15937;50.612;6.656;2024-03-23T02:46:25;5.97;;;2.75;;
26269;SDS011;15937;50.612;6.656;2024-03-23T02:50:26;4.82;;;1.95;;
26269;SDS011;15937;50.612;6.656;2024-03-23T02:54:29;12.10;;;2.03;;
26269;SDS011;15937;50.612;6.656;2024-03-23T02:58:30;10.77;;;1.80;;
26269;SDS011;15937;50.612;6.656;2024-03-23T03:02:31;8.02;;;1.90;;
26269;SDS011;15937;50.612;6.656;2024-03-23T03:06:32;9.40;;;2.05;;
26269;SDS011;15937;50.612;6.656;2024-03-23T03:10:36;7.32;;;1.85;;
26269;SDS011;15937;50.612;6.656;2024-03-23T03:14:37;5.70;;;1.55;;
26269;SDS011;15937;50.612;6.656;2024-03-23T03:18:38;12.63;;;2.40;;
26269;SDS011;15937;50.612;6.656;2024-03-23T03:22:42;14.23;;;3.22;;
26269;SDS011;15937;50.612;6.656;2024-03-23T03:26:43;9.27;;;2.15;;
26269;SDS011;15937;50.612;6.656;2024-03-23T03:30:44;10.70;;;2.05;;
26269;SDS011;15937;50.612;6.656;2024-03-23T03:34:46;17.27;;;2.78;;
26269;SDS011;15937;50.612;6.656;2024-03-23T03:38:47;7.68;;;2.33;;
26269;SDS011;15937;50.612;6.656;2024-03-23T03:42:48;11.25;;;2.58;;
26269;SDS011;15937;50.612;6.656;2024-03-23T03:46:49;14.65;;;3.15;;
26269;SDS011;15937;50.612;6.656;2024-03-23T03:50:50;15.05;;;3.22;;
26269;SDS011;15937;50.612;6.656;2024-03-23T03:54:55;9.02;;;2.13;;
26269;SDS011;15937;50.612;6.656;2024-03-23T03:59:02;20.77;;;3.00;;
26269;SDS011;15937;50.612;6.656;2024-03-23T04:03:03;8.30;;;2.22;;
26269;SDS011;15937;50.612;6.656;2024-03-23T04:07:05;18.38;;;2.80;;
26269;SDS011;15937;50.612;6.656;2024-03-23T04:11:06;11.48;;;2.33;;
26269;SDS011;15937;50.612;6.656;2024-03-23T04:15:08;8.77;;;2.35;;
26269;SDS011;15937;50.612;6.656;2024-03-23T04:19:09;7.10;;;2.33;;
26269;SDS011;15937;50.612;6.656;2024-03-23T04:23:10;6.35;;;2.30;;
26269;SDS011;15937;50.612;6.656;2024-03-23T04:27:11;11.88;;;2.53;;
26269;SDS011;15937;50.612;6.656;2024-03-23T04:31:12;22.50;;;3.08;;
26269;SDS011;15937;50.612;6.656;2024-03-23T04:35:17;10.68;;;3.00;;
26269;SDS011;15937;50.612;6.656;2024-03-23T04:39:18;10.52;;;2.63;;
26269;SDS011;15937;50.612;6.656;2024-03-23T04:43:20;6.32;;;2.60;;
26269;SDS011;15937;50.612;6.656;2024-03-23T04:47:21;6.22;;;2.75;;
26269;SDS011;15937;50.612;6.656;2024-03-23T04:51:23;11.02;;;3.22;;
26269;SDS011;15937;50.612;6.656;2024-03-23T04:55:27;9.70;;;2.05;;
26269;SDS011;15937;50.612;6.656;2024-03-23T04:59:28;16.45;;;2.83;;
26269;SDS011;15937;50.612;6.656;2024-03-23T05:03:31;11.88;;;2.53;;
26269;SDS011;15937;50.612;6.656;2024-03-23T05:07:32;10.07;;;2.20;;
26269;SDS011;15937;50.612;6.656;2024-03-23T05:11:35;18.83;;;2.95;;
26269;SDS011;15937;50.612;6.656;2024-03-23T05:15:39;11.43;;;2.50;;
26269;SDS011;15937;50.612;6.656;2024-03-23T05:19:41;16.50;;;2.50;;
26269;SDS011;15937;50.612;6.656;2024-03-23T05:23:41;10.55;;;2.75;;
26269;SDS011;15937;50.612;6.656;2024-03-23T05:27:43;13.30;;;2.85;;
26269;SDS011;15937;50.612;6.656;2024-03-23T05:31:49;8.07;;;2.42;;
26269;SDS011;15937;50.612;6.656;2024-03-23T05:35:58;9.45;;;2.60;;
26269;SDS011;15937;50.612;6.656;2024-03-23T05:40:01;7.47;;;2.22;;
26269;SDS011;15937;50.612;6.656;2024-03-23T05:48:05;7.57;;;2.80;;
26269;SDS011;15937;50.612;6.656;2024-03-23T05:52:08;10.60;;;3.25;;
26269;SDS011;15937;50.612;6.656;2024-03-23T05:56:09;12.00;;;3.13;;
26269;SDS011;15937;50.612;6.656;2024-03-23T06:00:10;15.52;;;3.40;;
26269;SDS011;15937;50.612;6.656;2024-03-23T06:04:16;14.30;;;3.20;;
26269;SDS011;15937;50.612;6.656;2024-03-23T06:08:17;9.75;;;2.88;;
26269;SDS011;15937;50.612;6.656;2024-03-23T06:12:21;7.55;;;3.05;;
26269;SDS011;15937;50.612;6.656;2024-03-23T06:16:23;8.80;;;2.78;;
26269;SDS011;15937;50.612;6.656;2024-03-23T06:20:24;15.90;;;3.72;;
26269;SDS011;15937;50.612;6.656;2024-03-23T06:24:27;14.57;;;3.37;;
26269;SDS011;15937;50.612;6.656;2024-03-23T06:28:28;9.73;;;2.72;;
26269;SDS011;15937;50.612;6.656;2024-03-23T06:32:29;11.35;;;2.97;;
26269;SDS011;15937;50.612;6.656;2024-03-23T06:36:31;18.63;;;3.28;;
26269;SDS011;15937;50.612;6.656;2024-03-23T06:40:36;11.13;;;2.90;;
26269;SDS011;15937;50.612;6.656;2024-03-23T06:44:37;12.30;;;3.42;;
26269;SDS011;15937;50.612;6.656;2024-03-23T06:48:41;14.20;;;3.83;;
26269;SDS011;15937;50.612;6.656;2024-03-23T06:52:44;12.70;;;4.75;;
26269;SDS011;15937;50.612;6.656;2024-03-23T06:56:45;21.33;;;5.47;;
26269;SDS011;15937;50.612;6.656;2024-03-23T07:00:50;12.35;;;5.15;;
26269;SDS011;15937;50.612;6.656;2024-03-23T07:05:00;22.05;;;5.18;;
26269;SDS011;15937;50.612;6.656;2024-03-23T07:09:04;14.73;;;4.50;;
26269;SDS011;15937;50.612;6.656;2024-03-23T07:13:05;19.75;;;5.22;;
26269;SDS011;15937;50.612;6.656;2024-03-23T07:17:06;17.23;;;6.15;;
26269;SDS011;15937;50.612;6.656;2024-03-23T07:21:10;12.68;;;5.95;;
26269;SDS011;15937;50.612;6.656;2024-03-23T07:25:11;12.93;;;5.55;;
26269;SDS011;15937;50.612;6.656;2024-03-23T07:29:14;21.45;;;5.72;;
26269;SDS011;15937;50.612;6.656;2024-03-23T07:33:15;22.50;;;5.50;;
26269;SDS011;15937;50.612;6.656;2024-03-23T07:37:20;21.63;;;6.10;;
26269;SDS011;15937;50.612;6.656;2024-03-23T07:41:23;11.82;;;5.00;;
26269;SDS011;15937;50.612;6.656;2024-03-23T07:45:25;19.80;;;5.70;;
26269;SDS011;15937;50.612;6.656;2024-03-23T07:49:28;21.23;;;6.47;;
26269;SDS011;15937;50.612;6.656;2024-03-23T07:53:30;24.65;;;6.72;;
26269;SDS011;15937;50.612;6.656;2024-03-23T07:57:32;17.90;;;7.20;;
26269;SDS011;15937;50.612;6.656;2024-03-23T08:01:33;21.10;;;6.30;;
26269;SDS011;15937;50.612;6.656;2024-03-23T08:05:34;28.15;;;7.05;;
26269;SDS011;15937;50.612;6.656;2024-03-23T08:09:38;14.85;;;6.65;;
26269;SDS011;15937;50.612;6.656;2024-03-23T08:13:39;22.73;;;7.82;;
26269;SDS011;15937;50.612;6.656;2024-03-23T08:17:41;21.37;;;7.37;;
26269;SDS011;15937;50.612;6.656;2024-03-23T08:21:42;16.58;;;5.90;;
26269;SDS011;15937;50.612;6.656;2024-03-23T08:25:46;20.40;;;6.15;;
26269;SDS011;15937;50.612;6.656;2024-03-23T08:29:47;18.65;;;5.65;;
26269;SDS011;15937;50.612;6.656;2024-03-23T08:33:48;20.08;;;5.55;;
26269;SDS011;15937;50.612;6.656;2024-03-23T08:37:52;16.73;;;5.13;;
26269;SDS011;15937;50.612;6.656;2024-03-23T08:41:52;11.07;;;3.60;;
26269;SDS011;15937;50.612;6.656;2024-03-23T08:45:54;15.98;;;3.88;;
26269;SDS011;15937;50.612;6.656;2024-03-23T08:50:03;13.05;;;5.57;;
26269;SDS011;15937;50.612;6.656;2024-03-23T08:54:04;16.27;;;3.75;;
26269;SDS011;15937;50.612;6.656;2024-03-23T08:58:05;15.77;;;4.28;;
26269;SDS011;15937;50.612;6.656;2024-03-23T09:06:10;12.95;;;3.42;;
26269;SDS011;15937;50.612;6.656;2024-03-23T09:10:13;11.40;;;2.95;;
26269;SDS011;15937;50.612;6.656;2024-03-23T09:14:14;9.15;;;3.28;;
26269;SDS011;15937;50.612;6.656;2024-03-23T09:18:15;11.57;;;2.92;;
26269;SDS011;15937;50.612;6.656;2024-03-23T09:22:17;13.60;;;3.17;;
26269;SDS011;15937;50.612;6.656;2024-03-23T09:26:18;19.17;;;3.05;;
26269;SDS011;15937;50.612;6.656;2024-03-23T09:30:19;26.98;;;7.60;;
26269;SDS011;15937;50.612;6.656;2024-03-23T09:34:21;19.48;;;4.38;;
26269;SDS011;15937;50.612;6.656;2024-03-23T09:38:25;28.00;;;9.20;;
26269;SDS011;15937;50.612;6.656;2024-03-23T09:42:25;20.20;;;4.63;;
26269;SDS011;15937;50.612;6.656;2024-03-23T09:46:27;27.25;;;3.63;;
26269;SDS011;15937;50.612;6.656;2024-03-23T09:50:29;19.75;;;5.45;;
26269;SDS011;15937;50.612;6.656;2024-03-23T09:54:30;28.67;;;7.47;;
26269;SDS011;15937;50.612;6.656;2024-03-23T09:58:32;17.50;;;7.10;;
26269;SDS011;15937;50.612;6.656;2024-03-23T10:02:36;10.77;;;2.78;;
26269;SDS011;15937;50.612;6.656;2024-03-23T10:06:37;2.05;;;1.15;;
26269;SDS011;15937;50.612;6.656;2024-03-23T10:10:38;2.17;;;1.38;;
26269;SDS011;15937;50.612;6.656;2024-03-23T10:14:40;4.75;;;1.95;;
26269;SDS011;15937;50.612;6.656;2024-03-23T10:18:41;2.15;;;1.10;;
26269;SDS011;15937;50.612;6.656;2024-03-23T10:22:42;2.80;;;1.30;;
26269;SDS011;15937;50.612;6.656;2024-03-23T10:26:44;0.90;;;0.90;;
26269;SDS011;15937;50.612;6.656;2024-03-23T10:30:58;0.90;;;0.90;;
26269;SDS011;15937;50.612;6.656;2024-03-23T10:35:17;2.45;;;1.42;;
26269;SDS011;15937;50.612;6.656;2024-03-23T10:39:25;1.70;;;1.38;;
26269;SDS011;15937;50.612;6.656;2024-03-23T10:43:26;5.22;;;1.92;;
26269;SDS011;15937;50.612;6.656;2024-03-23T10:47:27;9.35;;;4.82;;
26269;SDS011;15937;50.612;6.656;2024-03-23T10:51:28;4.13;;;2.88;;
26269;SDS011;15937;50.612;6.656;2024-03-23T10:55:29;3.90;;;1.90;;
26269;SDS011;15937;50.612;6.656;2024-03-23T10:59:31;3.33;;;1.98;;
26269;SDS011;15937;50.612;6.656;2024-03-23T11:03:33;3.42;;;1.65;;
26269;SDS011;15937;50.612;6.656;2024-03-23T11:07:38;5.13;;;2.22;;
26269;SDS011;15937;50.612;6.656;2024-03-23T11:11:39;7.55;;;2.58;;
26269;SDS011;15937;50.612;6.656;2024-03-23T11:15:40;15.25;;;2.28;;
26269;SDS011;15937;50.612;6.656;2024-03-23T11:20:20;6.32;;;2.28;;
26269;SDS011;15937;50.612;6.656;2024-03-23T11:24:14;8.50;;;2.53;;
26269;SDS011;15937;50.612;6.656;2024-03-23T11:28:15;4.45;;;2.80;;
26269;SDS011;15937;50.612;6.656;2024-03-23T11:32:17;9.70;;;2.93;;
26269;SDS011;15937;50.612;6.656;2024-03-23T11:36:18;9.00;;;3.50;;
26269;SDS011;15937;50.612;6.656;2024-03-23T11:40:20;7.35;;;3.78;;
26269;SDS011;15937;50.612;6.656;2024-03-23T11:44:22;8.75;;;2.92;;
26269;SDS011;15937;50.612;6.656;2024-03-23T11:48:25;9.40;;;3.03;;
26269;SDS011;15937;50.612;6.656;2024-03-23T11:52:27;5.17;;;2.63;;
26269;SDS011;15937;50.612;6.656;2024-03-23T11:56:28;9.75;;;2.40;;
26269;SDS011;15937;50.612;6.656;2024-03-23T12:00:29;6.65;;;2.30;;
26269;SDS011;15937;50.612;6.656;2024-03-23T12:04:34;8.00;;;2.92;;
26269;SDS011;15937;50.612;6.656;2024-03-23T12:08:38;13.95;;;3.47;;
26269;SDS011;15937;50.612;6.656;2024-03-23T12:12:39;8.27;;;3.10;;
26269;SDS011;15937;50.612;6.656;2024-03-23T12:16:40;8.18;;;3.00;;
26269;SDS011;15937;50.612;6.656;2024-03-23T12:20:41;13.10;;;3.45;;
26269;SDS011;15937;50.612;6.656;2024-03-23T12:24:42;9.30;;;3.00;;
26269;SDS011;15937;50.612;6.656;2024-03-23T12:28:47;9.18;;;3.00;;
26269;SDS011;15937;50.612;6.656;2024-03-23T12:32:48;8.02;;;2.95;;
26269;SDS011;15937;50.612;6.656;2024-03-23T12:36:49;4.93;;;1.95;;
26269;SDS011;15937;50.612;6.656;2024-03-23T12:40:50;8.32;;;2.83;;
26269;SDS011;15937;50.612;6.656;2024-03-23T12:44:52;23.77;;;7.82;;
26269;SDS011;15937;50.612;6.656;2024-03-23T12:48:53;8.70;;;3.20;;
26269;SDS011;15937;50.612;6.656;2024-03-23T12:52:54;12.00;;;3.00;;
26269;SDS011;15937;50.612;6.656;2024-03-23T12:56:55;5.93;;;2.28;;
26269;SDS011;15937;50.612;6.656;2024-03-23T13:00:57;5.45;;;1.98;;
26269;SDS011;15937;50.612;6.656;2024-03-23T13:04:59;10.85;;;2.83;;
26269;SDS011;15937;50.612;6.656;2024-03-23T13:09:03;5.78;;;1.63;;
26269;SDS011;15937;50.612;6.656;2024-03-23T13:13:05;10.20;;;2.40;;
26269;SDS011;15937;50.612;6.656;2024-03-23T13:17:08;5.82;;;2.00;;
26269;SDS011;15937;50.612;6.656;2024-03-23T13:21:09;6.43;;;2.10;;
26269;SDS011;15937;50.612;6.656;2024-03-23T13:25:11;14.05;;;2.63;;
26269;SDS011;15937;50.612;6.656;2024-03-23T13:29:11;9.57;;;2.20;;
26269;SDS011;15937;50.612;6.656;2024-03-23T13:33:12;7.40;;;2.22;;
26269;SDS011;15937;50.612;6.656;2024-03-23T13:37:15;7.77;;;1.93;;
26269;SDS011;15937;50.612;6.656;2024-03-23T13:41:16;8.75;;;1.60;;
26269;SDS011;15937;50.612;6.656;2024-03-23T13:45:18;7.40;;;2.30;;
26269;SDS011;15937;50.612;6.656;2024-03-23T13:49:27;4.95;;;2.03;;
26269;SDS011;15937;50.612;6.656;2024-03-23T13:53:28;3.55;;;1.75;;
26269;SDS011;15937;50.612;6.656;2024-03-23T13:57:29;10.23;;;1.80;;
26269;SDS011;15937;50.612;6.656;2024-03-23T14:01:30;2.65;;;1.30;;
26269;SDS011;15937;50.612;6.656;2024-03-23T14:05:32;1.80;;;1.33;;
26269;SDS011;15937;50.612;6.656;2024-03-23T14:09:33;1.52;;;1.10;;
26269;SDS011;15937;50.612;6.656;2024-03-23T14:13:34;20.50;;;7.40;;
26269;SDS011;15937;50.612;6.656;2024-03-23T14:17:38;9.18;;;3.80;;
26269;SDS011;15937;50.612;6.656;2024-03-23T14:21:39;2.80;;;1.05;;
26269;SDS011;15937;50.612;6.656;2024-03-23T14:25:41;2.17;;;1.23;;
26269;SDS011;15937;50.612;6.656;2024-03-23T14:29:42;1.33;;;1.08;;
26269;SDS011;15937;50.612;6.656;2024-03-23T14:33:47;4.13;;;1.40;;
26269;SDS011;15937;50.612;6.656;2024-03-23T14:37:48;4.03;;;1.27;;
26269;SDS011;15937;50.612;6.656;2024-03-23T14:41:50;5.72;;;1.20;;
26269;SDS011;15937;50.612;6.656;2024-03-23T14:50:08;2.58;;;1.60;;
26269;SDS011;15937;50.612;6.656;2024-03-23T14:54:13;4.22;;;2.05;;
26269;SDS011;15937;50.612;6.656;2024-03-23T14:58:14;3.17;;;1.40;;
26269;SDS011;15937;50.612;6.656;2024-03-23T15:02:15;1.38;;;1.00;;
26269;SDS011;15937;50.612;6.656;2024-03-23T15:06:16;6.68;;;1.20;;
26269;SDS011;15937;50.612;6.656;2024-03-23T15:10:17;3.70;;;1.55;;
26269;SDS011;15937;50.612;6.656;2024-03-23T15:14:18;4.93;;;1.35;;
26269;SDS011;15937;50.612;6.656;2024-03-23T15:18:20;2.92;;;1.23;;
26269;SDS011;15937;50.612;6.656;2024-03-23T15:22:28;4.00;;;1.58;;
26269;SDS011;15937;50.612;6.656;2024-03-23T15:26:29;1.05;;;0.90;;
26269;SDS011;15937;50.612;6.656;2024-03-23T15:30:30;4.25;;;1.33;;
26269;SDS011;15937;50.612;6.656;2024-03-23T15:34:33;4.85;;;2.03;;
26269;SDS011;15937;50.612;6.656;2024-03-23T15:38:34;6.00;;;1.50;;
26269;SDS011;15937;50.612;6.656;2024-03-23T15:42:35;3.65;;;1.15;;
26269;SDS011;15937;50.612;6.656;2024-03-23T15:46:36;8.15;;;1.40;;
26269;SDS011;15937;50.612;6.656;2024-03-23T15:50:37;2.97;;;1.30;;
26269;SDS011;15937;50.612;6.656;2024-03-23T15:54:38;4.53;;;1.60;;
26269;SDS011;15937;50.612;6.656;2024-03-23T15:58:39;10.65;;;5.30;;
26269;SDS011;15937;50.612;6.656;2024-03-23T16:02:41;4.30;;;2.28;;
26269;SDS011;15937;50.612;6.656;2024-03-23T16:06:41;5.47;;;1.60;;
26269;SDS011;15937;50.612;6.656;2024-03-23T16:10:44;1.70;;;1.20;;
26269;SDS011;15937;50.612;6.656;2024-03-23T16:14:45;2.70;;;1.33;;
26269;SDS011;15937;50.612;6.656;2024-03-23T16:18:46;2.00;;;1.38;;
26269;SDS011;15937;50.612;6.656;2024-03-23T16:22:47;5.60;;;1.00;;
26269;SDS011;15937;50.612;6.656;2024-03-23T16:26:48;1.25;;;1.10;;
26269;SDS011;15937;50.612;6.656;2024-03-23T16:30:53;1.20;;;1.00;;
26269;SDS011;15937;50.612;6.656;2024-03-23T16:34:57;3.33;;;1.38;;
26269;SDS011;15937;50.612;6.656;2024-03-23T16:38:59;2.10;;;1.55;;
26269;SDS011;15937;50.612;6.656;2024-03-23T16:43:00;2.20;;;1.30;;
26269;SDS011;15937;50.612;6.656;2024-03-23T16:47:01;1.58;;;1.20;;
26269;SDS011;15937;50.612;6.656;2024-03-23T16:51:02;3.97;;;1.38;;
26269;SDS011;15937;50.612;6.656;2024-03-23T16:55:04;3.63;;;1.50;;
26269;SDS011;15937;50.612;6.656;2024-03-23T16:59:06;3.80;;;1.48;;
26269;SDS011;15937;50.612;6.656;2024-03-23T17:03:07;6.32;;;2.15;;
26269;SDS011;15937;50.612;6.656;2024-03-23T17:07:09;3.00;;;1.42;;
26269;SDS011;15937;50.612;6.656;2024-03-23T17:11:09;3.28;;;1.70;;
26269;SDS011;15937;50.612;6.656;2024-03-23T17:15:11;4.35;;;1.88;;
26269;SDS011;15937;50.612;6.656;2024-03-23T17:19:12;8.43;;;2.00;;
26269;SDS011;15937;50.612;6.656;2024-03-23T17:23:22;1.65;;;1.30;;
26269;SDS011;15937;50.612;6.656;2024-03-23T17:27:26;5.88;;;2.10;;
26269;SDS011;15937;50.612;6.656;2024-03-23T17:31:27;8.68;;;2.00;;
26269;SDS011;15937;50.612;6.656;2024-03-23T17:35:28;2.90;;;1.40;;
26269;SDS011;15937;50.612;6.656;2024-03-23T17:39:32;5.10;;;1.40;;
26269;SDS011;15937;50.612;6.656;2024-03-23T17:43:33;5.40;;;1.40;;
26269;SDS011;15937;50.612;6.656;2024-03-23T17:47:35;2.53;;;1.33;;
26269;SDS011;15937;50.612;6.656;2024-03-23T17:51:36;6.17;;;1.93;;
26269;SDS011;15937;50.612;6.656;2024-03-23T17:55:37;5.07;;;1.60;;
26269;SDS011;15937;50.612;6.656;2024-03-23T17:59:40;3.87;;;2.07;;
26269;SDS011;15937;50.612;6.656;2024-03-23T18:03:41;1.70;;;1.48;;
26269;SDS011;15937;50.612;6.656;2024-03-23T18:07:42;6.95;;;1.77;;
26269;SDS011;15937;50.612;6.656;2024-03-23T18:11:43;3.17;;;1.70;;
26269;SDS011;15937;50.612;6.656;2024-03-23T18:15:44;3.20;;;1.60;;
26269;SDS011;15937;50.612;6.656;2024-03-23T18:19:46;1.98;;;1.80;;
26269;SDS011;15937;50.612;6.656;2024-03-23T18:23:47;7.15;;;2.13;;
26269;SDS011;15937;50.612;6.656;2024-03-23T18:27:48;9.98;;;3.60;;
26269;SDS011;15937;50.612;6.656;2024-03-23T18:31:49;11.70;;;3.20;;
26269;SDS011;15937;50.612;6.656;2024-03-23T18:35:51;6.07;;;2.40;;
26269;SDS011;15937;50.612;6.656;2024-03-23T18:39:52;6.82;;;2.10;;
26269;SDS011;15937;50.612;6.656;2024-03-23T18:43:54;2.90;;;1.48;;
26269;SDS011;15937;50.612;6.656;2024-03-23T18:47:58;6.55;;;2.10;;
26269;SDS011;15937;50.612;6.656;2024-03-23T18:52:00;4.00;;;1.92;;
26269;SDS011;15937;50.612;6.656;2024-03-23T18:56:01;5.72;;;2.10;;
26269;SDS011;15937;50.612;6.656;2024-03-23T19:00:03;2.78;;;2.08;;
26269;SDS011;15937;50.612;6.656;2024-03-23T19:04:05;5.80;;;2.00;;
26269;SDS011;15937;50.612;6.656;2024-03-23T19:08:06;5.05;;;2.10;;
26269;SDS011;15937;50.612;6.656;2024-03-23T19:12:08;10.52;;;2.30;;
26269;SDS011;15937;50.612;6.656;2024-03-23T19:16:08;8.27;;;2.00;;
26269;SDS011;15937;50.612;6.656;2024-03-23T19:20:10;6.40;;;2.15;;
26269;SDS011;15937;50.612;6.656;2024-03-23T19:24:11;9.30;;;2.28;;
26269;SDS011;15937;50.612;6.656;2024-03-23T19:28:13;5.32;;;2.15;;
26269;SDS011;15937;50.612;6.656;2024-03-23T19:32:14;4.88;;;2.25;;
26269;SDS011;15937;50.612;6.656;2024-03-23T19:36:15;4.47;;;1.80;;
26269;SDS011;15937;50.612;6.656;2024-03-23T19:40:18;6.93;;;2.08;;
26269;SDS011;15937;50.612;6.656;2024-03-23T19:44:19;7.25;;;2.40;;
26269;SDS011;15937;50.612;6.656;2024-03-23T19:48:20;8.00;;;2.80;;
26269;SDS011;15937;50.612;6.656;2024-03-23T19:52:22;6.43;;;2.22;;
26269;SDS011;15937;50.612;6.656;2024-03-23T19:56:23;3.85;;;2.20;;
26269;SDS011;15937;50.612;6.656;2024-03-23T20:00:24;7.63;;;2.90;;
26269;SDS011;15937;50.612;6.656;2024-03-23T20:04:25;12.40;;;2.25;;
26269;SDS011;15937;50.612;6.656;2024-03-23T20:08:26;8.18;;;2.20;;
26269;SDS011;15937;50.612;6.656;2024-03-23T20:12:28;6.90;;;2.25;;
26269;SDS011;15937;50.612;6.656;2024-03-23T20:16:29;4.10;;;1.63;;
26269;SDS011;15937;50.612;6.656;2024-03-23T20:20:32;9.18;;;1.95;;
26269;SDS011;15937;50.612;6.656;2024-03-23T20:24:33;4.68;;;2.08;;
26269;SDS011;15937;50.612;6.656;2024-03-23T20:28:34;4.82;;;1.80;;
26269;SDS011;15937;50.612;6.656;2024-03-23T20:32:35;8.00;;;1.92;;
26269;SDS011;15937;50.612;6.656;2024-03-23T20:36:37;5.05;;;1.42;;
26269;SDS011;15937;50.612;6.656;2024-03-23T20:40:38;5.00;;;1.83;;
26269;SDS011;15937;50.612;6.656;2024-03-23T20:44:39;6.47;;;1.70;;
26269;SDS011;15937;50.612;6.656;2024-03-23T20:48:41;6.18;;;2.15;;
26269;SDS011;15937;50.612;6.656;2024-03-23T20:52:43;4.60;;;2.13;;
26269;SDS011;15937;50.612;6.656;2024-03-23T20:56:43;2.88;;;1.90;;
26269;SDS011;15937;50.612;6.656;2024-03-23T21:00:45;6.90;;;1.60;;
26269;SDS011;15937;50.612;6.656;2024-03-23T21:04:46;4.68;;;2.13;;
26269;SDS011;15937;50.612;6.656;2024-03-23T21:08:49;8.82;;;2.20;;
26269;SDS011;15937;50.612;6.656;2024-03-23T21:12:50;7.95;;;2.42;;
26269;SDS011;15937;50.612;6.656;2024-03-23T21:16:53;7.10;;;2.20;;
26269;SDS011;15937;50.612;6.656;2024-03-23T21:20:55;7.72;;;2.10;;
26269;SDS011;15937;50.612;6.656;2024-03-23T21:25:00;3.20;;;2.35;;
26269;SDS011;15937;50.612;6.656;2024-03-23T21:29:01;7.68;;;2.00;;
26269;SDS011;15937;50.612;6.656;2024-03-23T21:33:02;11.25;;;1.90;;
26269;SDS011;15937;50.612;6.656;2024-03-23T21:37:05;4.57;;;1.65;;
26269;SDS011;15937;50.612;6.656;2024-03-23T21:41:06;4.78;;;2.03;;
26269;SDS011;15937;50.612;6.656;2024-03-23T21:45:08;4.95;;;2.00;;
26269;SDS011;15937;50.612;6.656;2024-03-23T21:49:10;3.90;;;1.85;;
26269;SDS011;15937;50.612;6.656;2024-03-23T21:53:11;5.35;;;2.05;;
26269;SDS011;15937;50.612;6.656;2024-03-23T21:57:13;10.82;;;2.05;;
26269;SDS011;15937;50.612;6.656;2024-03-23T22:01:14;7.13;;;1.65;;
26269;SDS011;15937;50.612;6.656;2024-03-23T22:05:17;7.47;;;2.20;;
26269;SDS011;15937;50.612;6.656;2024-03-23T22:09:18;17.98;;;2.47;;
26269;SDS011;15937;50.612;6.656;2024-03-23T22:13:19;8.95;;;2.45;;
26269;SDS011;15937;50.612;6.656;2024-03-23T22:17:21;6.47;;;1.88;;
26269;SDS011;15937;50.612;6.656;2024-03-23T22:21:24;7.38;;;1.70;;
26269;SDS011;15937;50.612;6.656;2024-03-23T22:25:25;13.25;;;1.65;;
26269;SDS011;15937;50.612;6.656;2024-03-23T22:29:26;3.30;;;1.60;;
26269;SDS011;15937;50.612;6.656;2024-03-23T22:33:27;5.45;;;1.65;;
26269;SDS011;15937;50.612;6.656;2024-03-23T22:37:28;7.95;;;1.98;;
26269;SDS011;15937;50.612;6.656;2024-03-23T22:41:30;5.00;;;2.10;;
26269;SDS011;15937;50.612;6.656;2024-03-23T22:45:32;7.75;;;1.95;;
26269;SDS011;15937;50.612;6.656;2024-03-23T22:49:32;9.40;;;2.88;;
26269;SDS011;15937;50.612;6.656;2024-03-23T22:53:33;8.13;;;2.17;;
26269;SDS011;15937;50.612;6.656;2024-03-23T22:57:34;5.90;;;1.90;;
26269;SDS011;15937;50.612;6.656;2024-03-23T23:01:35;6.07;;;1.73;;
26269;SDS011;15937;50.612;6.656;2024-03-23T23:05:37;8.32;;;2.08;;
26269;SDS011;15937;50.612;6.656;2024-03-23T23:09:39;10.20;;;1.80;;
26269;SDS011;15937;50.612;6.656;2024-03-23T23:13:40;4.82;;;1.52;;
26269;SDS011;15937;50.612;6.656;2024-03-23T23:17:41;1.83;;;1.35;;
26269;SDS011;15937;50.612;6.656;2024-03-23T23:21:44;4.40;;;1.60;;
26269;SDS011;15937;50.612;6.656;2024-03-23T23:29:48;6.32;;;2.35;;
26269;SDS011;15937;50.612;6.656;2024-03-23T23:33:49;4.28;;;1.83;;
26269;SDS011;15937;50.612;6.656;2024-03-23T23:37:53;4.03;;;1.80;;
26269;SDS011;15937;50.612;6.656;2024-03-23T23:41:54;4.28;;;1.67;;
26269;SDS011;15937;50.612;6.656;2024-03-23T23:45:55;10.07;;;1.90;;
26269;SDS011;15937;50.612;6.656;2024-03-23T23:49:58;3.10;;;1.95;;
26269;SDS011;15937;50.612;6.656;2024-03-23T23:53:59;2.83;;;1.70;;
26269;SDS011;15937;50.612;6.656;2024-03-23T23:58:00;4.10;;;1.63;;
